createdAt,value
2022-07-31T00:01:00.099Z,100863.01
2022-07-31T00:03:29.617Z,100864.09
2022-07-31T00:05:58.938Z,100863.66
2022-07-31T00:08:29.000Z,100866.08
2022-07-31T00:10:58.416Z,100864.35
2022-07-31T00:13:57.526Z,100863.39
2022-07-31T00:16:17.549Z,100864.59
2022-07-31T00:18:46.954Z,100868.96
2022-07-31T00:21:16.275Z,100865.19
2022-07-31T00:23:45.518Z,100863.23
2022-07-31T00:26:14.785Z,100864.60
2022-07-31T00:28:44.720Z,100864.83
2022-07-31T00:31:14.075Z,100867.33
2022-07-31T00:33:43.508Z,100866.73
2022-07-31T00:36:12.929Z,100861.61
2022-07-31T00:38:42.361Z,100865.14
2022-07-31T00:41:11.802Z,100865.50
2022-07-31T00:43:41.145Z,100860.67
2022-07-31T00:46:14.249Z,100858.39
2022-07-31T00:48:44.359Z,100858.27
2022-07-31T00:51:13.817Z,100863.35
2022-07-31T00:53:44.929Z,100856.29
2022-07-31T00:56:14.258Z,100852.75
2022-07-31T00:58:43.817Z,100851.98
2022-07-31T01:01:13.227Z,100856.59
2022-07-31T01:03:42.717Z,100855.40
2022-07-31T01:06:13.758Z,100855.79
2022-07-31T01:08:43.099Z,100854.79
2022-07-31T01:11:12.309Z,100853.52
2022-07-31T01:13:41.733Z,100853.34
2022-07-31T01:16:11.009Z,100849.72
2022-07-31T01:18:40.883Z,100843.80
2022-07-31T01:21:10.365Z,100839.41
2022-07-31T01:23:39.650Z,100833.95
2022-07-31T01:26:27.828Z,100835.48
2022-07-31T01:29:04.475Z,100838.15
2022-07-31T01:31:33.855Z,100835.73
2022-07-31T01:34:04.290Z,100837.30
2022-07-31T01:36:36.669Z,100837.38
2022-07-31T01:39:07.117Z,100835.21
2022-07-31T01:41:37.114Z,100833.98
2022-07-31T01:44:07.408Z,100829.88
2022-07-31T01:46:45.001Z,100822.39
2022-07-31T01:49:15.705Z,100822.26
2022-07-31T01:51:45.457Z,100819.16
2022-07-31T01:54:14.722Z,100817.87
2022-07-31T01:56:44.645Z,100813.01
2022-07-31T01:59:20.170Z,100813.44
2022-07-31T02:02:13.195Z,100810.88
2022-07-31T02:04:42.517Z,100808.27
2022-07-31T02:07:12.540Z,100803.55
2022-07-31T02:09:52.436Z,100798.29
2022-07-31T02:12:33.703Z,100792.96
2022-07-31T02:15:04.356Z,100786.30
2022-07-31T02:17:33.850Z,100781.64
2022-07-31T02:20:21.651Z,100782.67
2022-07-31T02:22:52.032Z,100780.77
2022-07-31T02:25:21.238Z,100781.55
2022-07-31T02:27:54.285Z,100778.69
2022-07-31T02:30:39.335Z,100773.20
2022-07-31T02:33:12.034Z,100772.98
2022-07-31T02:35:44.221Z,100770.98
2022-07-31T02:38:22.176Z,100770.06
2022-07-31T02:40:52.952Z,100771.17
2022-07-31T02:43:22.299Z,100769.87
2022-07-31T02:45:51.636Z,100769.12
2022-07-31T02:48:21.471Z,100771.05
2022-07-31T02:50:51.832Z,100773.71
2022-07-31T02:53:22.017Z,100771.30
2022-07-31T02:55:53.814Z,100774.71
2022-07-31T02:58:23.202Z,100772.44
2022-07-31T03:00:52.610Z,100771.34
2022-07-31T03:03:22.041Z,100775.95
2022-07-31T03:05:52.989Z,100774.20
2022-07-31T03:08:22.186Z,100773.52
2022-07-31T03:10:53.870Z,100770.39
2022-07-31T03:13:23.192Z,100767.17
2022-07-31T03:15:52.455Z,100766.88
2022-07-31T03:18:21.952Z,100766.27
2022-07-31T03:20:53.139Z,100765.73
2022-07-31T03:23:22.683Z,100769.77
2022-07-31T03:26:15.672Z,100766.88
2022-07-31T03:28:45.021Z,100767.06
2022-07-31T03:31:14.580Z,100764.95
2022-07-31T03:33:43.930Z,100759.20
2022-07-31T03:36:13.251Z,100761.20
2022-07-31T03:38:45.585Z,100758.17
2022-07-31T03:41:32.978Z,100762.37
2022-07-31T03:44:02.376Z,100763.84
2022-07-31T03:46:33.157Z,100771.76
2022-07-31T03:49:02.516Z,100770.95
2022-07-31T03:51:32.063Z,100772.52
2022-07-31T03:54:01.458Z,100772.17
2022-07-31T03:56:51.042Z,100774.74
2022-07-31T03:59:21.696Z,100774.50
2022-07-31T04:01:57.402Z,100774.33
2022-07-31T04:04:40.337Z,100768.86
2022-07-31T04:07:11.117Z,100767.96
2022-07-31T04:09:40.576Z,100767.88
2022-07-31T04:12:11.703Z,100772.77
2022-07-31T04:14:41.209Z,100768.79
2022-07-31T04:17:10.552Z,100766.21
2022-07-31T04:19:39.838Z,100768.33
2022-07-31T04:22:09.357Z,100769.96
2022-07-31T04:24:41.043Z,100767.54
2022-07-31T04:27:29.889Z,100767.33
2022-07-31T04:29:59.090Z,100768.22
2022-07-31T04:32:28.631Z,100765.89
2022-07-31T04:35:04.475Z,100770.30
2022-07-31T04:37:33.882Z,100771.66
2022-07-31T04:40:05.088Z,100769.48
2022-07-31T04:42:34.434Z,100771.09
2022-07-31T04:45:04.184Z,100767.18
2022-07-31T04:47:33.705Z,100765.23
2022-07-31T04:50:03.157Z,100766.59
2022-07-31T04:52:33.308Z,100763.30
2022-07-31T04:55:08.613Z,100762.65
2022-07-31T04:57:38.074Z,100761.63
2022-07-31T05:00:07.612Z,100760.64
2022-07-31T05:02:38.136Z,100759.11
2022-07-31T05:05:07.467Z,100760.20
2022-07-31T05:07:45.162Z,100760.70
2022-07-31T05:10:32.704Z,100758.24
2022-07-31T05:13:02.387Z,100759.75
2022-07-31T05:15:32.789Z,100756.75
2022-07-31T05:18:02.249Z,100762.90
2022-07-31T05:20:54.515Z,100762.52
2022-07-31T05:23:32.468Z,100762.34
2022-07-31T05:26:16.626Z,100763.02
2022-07-31T05:28:56.431Z,100767.76
2022-07-31T05:31:28.163Z,100769.45
2022-07-31T05:33:59.429Z,100765.86
2022-07-31T05:36:28.976Z,100766.17
2022-07-31T05:38:58.394Z,100766.14
2022-07-31T05:41:34.971Z,100763.34
2022-07-31T05:44:27.401Z,100765.60
2022-07-31T05:49:27.295Z,100760.92
2022-07-31T05:51:57.969Z,100763.06
2022-07-31T05:54:28.071Z,100761.53
2022-07-31T05:57:33.255Z,100761.34
2022-07-31T06:00:05.741Z,100763.54
2022-07-31T06:02:45.023Z,100762.14
2022-07-31T06:05:37.699Z,100760.07
2022-07-31T06:08:07.172Z,100760.98
2022-07-31T06:10:41.952Z,100763.75
2022-07-31T06:13:12.338Z,100763.95
2022-07-31T06:15:42.435Z,100768.20
2022-07-31T06:18:19.062Z,100766.41
2022-07-31T06:20:48.515Z,100768.95
2022-07-31T06:23:23.011Z,100770.79
2022-07-31T06:26:05.184Z,100771.65
2022-07-31T06:28:47.599Z,100771.94
2022-07-31T06:31:19.258Z,100773.70
2022-07-31T06:33:48.899Z,100772.84
2022-07-31T06:36:20.651Z,100771.64
2022-07-31T06:38:59.580Z,100770.52
2022-07-31T06:41:48.787Z,100772.40
2022-07-31T06:44:30.334Z,100768.04
2022-07-31T06:47:25.712Z,100774.50
2022-07-31T06:50:10.403Z,100775.25
2022-07-31T06:52:42.163Z,100775.95
2022-07-31T06:55:11.601Z,100778.71
2022-07-31T06:57:42.896Z,100780.61
2022-07-31T07:00:15.200Z,100778.79
2022-07-31T07:02:52.399Z,100781.08
2022-07-31T07:05:22.543Z,100786.17
2022-07-31T07:07:54.695Z,100781.20
2022-07-31T07:10:24.093Z,100781.09
2022-07-31T07:13:02.705Z,100782.35
2022-07-31T07:15:38.213Z,100782.94
2022-07-31T07:18:08.517Z,100777.55
2022-07-31T07:20:42.452Z,100775.48
2022-07-31T07:23:11.810Z,100773.09
2022-07-31T07:25:49.748Z,100768.05
2022-07-31T07:28:30.844Z,100765.39
2022-07-31T07:31:04.591Z,100766.86
2022-07-31T07:33:39.908Z,100766.90
2022-07-31T07:36:23.520Z,100765.00
2022-07-31T07:39:03.530Z,100766.92
2022-07-31T07:41:34.755Z,100770.74
2022-07-31T07:44:04.222Z,100775.09
2022-07-31T07:46:33.762Z,100771.54
2022-07-31T07:49:04.678Z,100771.36
2022-07-31T07:52:10.351Z,100771.70
2022-07-31T07:55:00.552Z,100777.04
2022-07-31T07:58:01.921Z,100779.83
2022-07-31T08:00:57.108Z,100778.42
2022-07-31T08:03:50.658Z,100778.42
2022-07-31T08:06:15.871Z,100775.70
2022-07-31T08:08:45.228Z,100773.02
2022-07-31T08:11:17.099Z,100769.52
2022-07-31T08:13:59.973Z,100776.48
2022-07-31T08:16:38.484Z,100778.14
2022-07-31T08:19:08.953Z,100770.41
2022-07-31T08:21:39.681Z,100779.29
2022-07-31T08:24:11.576Z,100774.56
2022-07-31T08:26:58.909Z,100775.39
2022-07-31T08:29:29.209Z,100776.48
2022-07-31T08:32:13.168Z,100777.75
2022-07-31T08:35:01.197Z,100779.13
2022-07-31T08:38:01.898Z,100785.55
2022-07-31T08:40:22.226Z,100778.73
2022-07-31T08:42:52.219Z,100785.73
2022-07-31T08:45:22.792Z,100780.03
2022-07-31T08:48:08.144Z,100779.74
2022-07-31T08:50:44.496Z,100775.59
2022-07-31T08:53:24.203Z,100778.80
2022-07-31T08:56:01.110Z,100778.48
2022-07-31T08:58:33.979Z,100780.29
2022-07-31T09:01:06.470Z,100771.52
2022-07-31T09:03:36.963Z,100773.28
2022-07-31T09:06:10.018Z,100768.54
2022-07-31T09:08:39.383Z,100770.45
2022-07-31T09:11:10.292Z,100770.14
2022-07-31T09:13:52.461Z,100766.13
2022-07-31T09:16:54.963Z,100767.05
2022-07-31T09:19:52.864Z,100765.63
2022-07-31T09:22:24.715Z,100761.02
2022-07-31T09:24:55.354Z,100756.25
2022-07-31T09:27:25.291Z,100759.67
2022-07-31T09:29:54.661Z,100758.34
2022-07-31T09:32:39.326Z,100755.16
2022-07-31T09:35:16.984Z,100747.30
2022-07-31T09:37:46.861Z,100748.42
2022-07-31T09:40:34.808Z,100743.11
2022-07-31T09:43:33.231Z,100745.40
2022-07-31T09:46:18.097Z,100746.19
2022-07-31T09:48:47.451Z,100750.60
2022-07-31T09:51:19.111Z,100744.98
2022-07-31T09:53:50.677Z,100746.35
2022-07-31T09:56:50.564Z,100742.33
2022-07-31T09:59:19.990Z,100746.29
2022-07-31T10:01:50.335Z,100742.84
2022-07-31T10:04:19.847Z,100739.59
2022-07-31T10:06:49.347Z,100738.45
2022-07-31T10:09:18.631Z,100735.28
2022-07-31T10:11:58.778Z,100736.45
2022-07-31T10:14:29.850Z,100728.42
2022-07-31T10:16:59.248Z,100728.59
2022-07-31T10:19:47.145Z,100723.64
2022-07-31T10:22:35.232Z,100722.23
2022-07-31T10:25:04.679Z,100722.21
2022-07-31T10:27:35.884Z,100728.23
2022-07-31T10:30:12.608Z,100723.13
2022-07-31T10:32:46.907Z,100721.71
2022-07-31T10:35:36.426Z,100722.07
2022-07-31T10:38:29.521Z,100718.64
2022-07-31T10:41:07.189Z,100714.04
2022-07-31T10:43:36.537Z,100720.70
2022-07-31T10:46:17.520Z,100723.25
2022-07-31T10:49:08.760Z,100725.35
2022-07-31T10:51:57.321Z,100726.55
2022-07-31T10:54:46.092Z,100717.33
2022-07-31T10:57:34.241Z,100721.66
2022-07-31T11:00:23.188Z,100714.18
2022-07-31T11:03:17.673Z,100710.75
2022-07-31T11:06:05.820Z,100710.67
2022-07-31T11:08:54.023Z,100713.59
2022-07-31T11:11:43.614Z,100703.46
2022-07-31T11:14:31.858Z,100693.31
2022-07-31T11:18:16.599Z,100698.30
2022-07-31T11:20:34.823Z,100695.25
2022-07-31T11:23:04.851Z,100691.16
2022-07-31T11:25:35.071Z,100687.21
2022-07-31T11:28:04.420Z,100691.36
2022-07-31T11:30:33.798Z,100690.61
2022-07-31T11:33:02.916Z,100689.55
2022-07-31T11:35:32.238Z,100691.27
2022-07-31T11:38:01.445Z,100681.55
2022-07-31T11:40:32.339Z,100680.70
2022-07-31T11:43:25.364Z,100686.77
2022-07-31T11:45:51.807Z,100687.33
2022-07-31T11:48:21.096Z,100684.73
2022-07-31T11:50:50.713Z,100677.77
2022-07-31T11:53:19.872Z,100671.79
2022-07-31T11:55:49.116Z,100677.36
2022-07-31T11:58:18.218Z,100676.65
2022-07-31T12:00:47.424Z,100673.31
2022-07-31T12:03:16.758Z,100673.76
2022-07-31T12:05:45.969Z,100668.73
2022-07-31T12:08:15.232Z,100676.23
2022-07-31T12:10:45.117Z,100668.52
2022-07-31T12:13:16.108Z,100670.26
2022-07-31T12:15:45.728Z,100666.86
2022-07-31T12:18:14.962Z,100670.98
2022-07-31T12:20:44.169Z,100677.04
2022-07-31T12:23:38.634Z,100666.17
2022-07-31T12:26:05.563Z,100672.70
2022-07-31T12:28:34.817Z,100671.05
2022-07-31T12:31:04.004Z,100674.29
2022-07-31T12:33:33.193Z,100674.78
2022-07-31T12:36:02.295Z,100669.99
2022-07-31T12:38:45.166Z,100672.55
2022-07-31T12:41:17.849Z,100665.70
2022-07-31T12:43:52.341Z,100662.53
2022-07-31T12:46:22.323Z,100662.70
2022-07-31T12:48:52.542Z,100660.65
2022-07-31T12:51:46.632Z,100657.75
2022-07-31T12:54:11.420Z,100656.09
2022-07-31T12:56:40.838Z,100657.92
2022-07-31T12:59:10.695Z,100659.23
2022-07-31T13:01:40.365Z,100656.35
2022-07-31T13:04:19.145Z,100649.80
2022-07-31T13:06:51.904Z,100644.19
2022-07-31T13:09:21.589Z,100646.28
2022-07-31T13:11:55.859Z,100645.47
2022-07-31T13:14:27.200Z,100641.62
2022-07-31T13:16:56.454Z,100639.92
2022-07-31T13:19:25.640Z,100639.14
2022-07-31T13:21:56.923Z,100640.86
2022-07-31T13:24:27.276Z,100645.13
2022-07-31T13:26:59.242Z,100638.80
2022-07-31T13:29:28.491Z,100635.15
2022-07-31T13:31:57.924Z,100634.51
2022-07-31T13:34:27.213Z,100637.48
2022-07-31T13:36:56.841Z,100631.77
2022-07-31T13:39:26.178Z,100623.25
2022-07-31T13:41:55.453Z,100616.13
2022-07-31T13:44:24.783Z,100621.55
2022-07-31T13:46:54.114Z,100624.41
2022-07-31T13:49:23.513Z,100616.98
2022-07-31T13:51:52.849Z,100624.95
2022-07-31T13:54:22.125Z,100615.09
2022-07-31T13:56:51.508Z,100614.23
2022-07-31T13:59:20.830Z,100607.23
2022-07-31T14:02:03.122Z,100605.69
2022-07-31T14:04:38.078Z,100601.39
2022-07-31T14:07:09.535Z,100600.95
2022-07-31T14:09:39.180Z,100599.56
2022-07-31T14:12:21.174Z,100596.16
2022-07-31T14:14:50.466Z,100591.88
2022-07-31T14:17:19.831Z,100595.98
2022-07-31T14:19:49.061Z,100589.39
2022-07-31T14:22:18.327Z,100588.94
2022-07-31T14:24:50.756Z,100591.41
2022-07-31T14:27:21.382Z,100595.52
2022-07-31T14:29:50.634Z,100583.41
2022-07-31T14:32:22.583Z,100577.35
2022-07-31T14:34:52.138Z,100575.53
2022-07-31T14:37:21.892Z,100575.00
2022-07-31T14:39:51.051Z,100573.02
2022-07-31T14:42:22.518Z,100578.92
2022-07-31T14:44:55.417Z,100572.20
2022-07-31T14:47:24.728Z,100573.02
2022-07-31T14:50:07.430Z,100575.63
2022-07-31T14:52:39.452Z,100570.33
2022-07-31T14:55:08.692Z,100567.40
2022-07-31T14:57:37.870Z,100564.42
2022-07-31T15:00:13.011Z,100570.95
2022-07-31T15:02:42.489Z,100565.86
2022-07-31T15:06:43.873Z,100563.48
2022-07-31T15:08:03.699Z,100567.79
2022-07-31T15:10:33.128Z,100566.30
2022-07-31T15:13:02.759Z,100567.30
2022-07-31T15:15:33.760Z,100563.84
2022-07-31T15:18:03.553Z,100561.67
2022-07-31T15:20:33.348Z,100556.92
2022-07-31T15:23:02.923Z,100549.94
2022-07-31T15:25:32.168Z,100547.60
2022-07-31T15:28:01.486Z,100553.46
2022-07-31T15:30:30.579Z,100552.31
2022-07-31T15:32:59.782Z,100550.41
2022-07-31T15:35:29.064Z,100546.30
2022-07-31T15:37:59.841Z,100550.27
2022-07-31T15:40:29.038Z,100547.20
2022-07-31T15:42:58.997Z,100546.03
2022-07-31T15:45:28.577Z,100554.84
2022-07-31T15:47:58.328Z,100546.19
2022-07-31T15:50:27.560Z,100551.46
2022-07-31T15:52:56.884Z,100549.40
2022-07-31T15:55:26.529Z,100544.05
2022-07-31T15:57:55.797Z,100550.09
2022-07-31T16:00:25.090Z,100546.59
2022-07-31T16:02:54.542Z,100546.50
2022-07-31T16:05:37.003Z,100539.62
2022-07-31T16:08:31.106Z,100539.36
2022-07-31T16:10:58.426Z,100537.09
2022-07-31T16:13:27.815Z,100539.47
2022-07-31T16:19:09.206Z,100538.66
2022-07-31T16:21:41.215Z,100539.77
2022-07-31T16:24:10.583Z,100541.93
2022-07-31T16:26:40.902Z,100541.08
2022-07-31T16:29:17.127Z,100539.63
2022-07-31T16:31:47.165Z,100541.33
2022-07-31T16:34:16.515Z,100539.45
2022-07-31T16:36:45.729Z,100539.78
2022-07-31T16:39:20.697Z,100541.15
2022-07-31T16:41:54.621Z,100535.27
2022-07-31T16:44:24.871Z,100534.54
2022-07-31T16:46:55.007Z,100534.04
2022-07-31T16:49:35.767Z,100533.14
2022-07-31T16:52:06.707Z,100533.43
2022-07-31T16:54:36.009Z,100531.22
2022-07-31T16:57:05.636Z,100530.05
2022-07-31T16:59:56.700Z,100529.90
2022-07-31T17:02:26.110Z,100530.48
2022-07-31T17:04:55.456Z,100533.03
2022-07-31T17:07:24.686Z,100536.05
2022-07-31T17:09:54.012Z,100536.73
2022-07-31T17:12:23.291Z,100536.41
2022-07-31T17:14:52.664Z,100538.72
2022-07-31T17:17:22.010Z,100537.00
2022-07-31T17:19:55.197Z,100540.30
2022-07-31T17:22:24.948Z,100542.77
2022-07-31T17:24:54.200Z,100542.79
2022-07-31T17:27:24.719Z,100541.86
2022-07-31T17:29:53.946Z,100541.31
2022-07-31T17:32:23.279Z,100543.73
2022-07-31T17:34:52.433Z,100544.70
2022-07-31T17:37:22.269Z,100542.84
2022-07-31T17:39:57.727Z,100542.66
2022-07-31T17:42:27.751Z,100542.33
2022-07-31T17:44:59.347Z,100546.00
2022-07-31T17:47:28.578Z,100548.91
2022-07-31T17:49:58.690Z,100553.00
2022-07-31T17:52:28.489Z,100551.93
2022-07-31T17:54:58.122Z,100554.63
2022-07-31T17:57:30.899Z,100555.67
2022-07-31T18:00:00.831Z,100554.83
2022-07-31T18:02:30.177Z,100558.11
2022-07-31T18:04:59.589Z,100557.22
2022-07-31T18:07:30.076Z,100564.54
2022-07-31T18:09:59.387Z,100562.05
2022-07-31T18:12:28.611Z,100564.20
2022-07-31T18:15:17.840Z,100565.75
2022-07-31T18:17:47.613Z,100564.20
2022-07-31T18:20:18.167Z,100566.45
2022-07-31T18:22:49.731Z,100565.35
2022-07-31T18:25:19.448Z,100569.43
2022-07-31T18:27:48.853Z,100577.16
2022-07-31T18:30:18.204Z,100573.88
2022-07-31T18:32:47.975Z,100576.58
2022-07-31T18:35:17.242Z,100573.73
2022-07-31T18:37:46.765Z,100575.77
2022-07-31T18:40:16.167Z,100580.23
2022-07-31T18:42:46.042Z,100583.77
2022-07-31T18:45:15.435Z,100582.71
2022-07-31T18:47:45.785Z,100591.45
2022-07-31T18:51:00.584Z,100591.41
2022-07-31T18:53:04.458Z,100595.12
2022-07-31T18:55:33.867Z,100601.36
2022-07-31T18:58:03.287Z,100603.92
2022-07-31T19:00:33.786Z,100605.97
2022-07-31T19:03:04.400Z,100611.19
2022-07-31T19:05:33.764Z,100608.71
2022-07-31T19:08:03.083Z,100615.48
2022-07-31T19:10:32.424Z,100619.45
2022-07-31T19:13:02.498Z,100618.17
2022-07-31T19:15:31.890Z,100622.83
2022-07-31T19:18:01.985Z,100623.38
2022-07-31T19:20:56.612Z,100626.00
2022-07-31T19:23:22.676Z,100627.02
2022-07-31T19:26:02.159Z,100627.89
2022-07-31T19:28:33.004Z,100630.61
2022-07-31T19:31:02.758Z,100628.35
2022-07-31T19:33:32.137Z,100637.53
2022-07-31T19:36:03.131Z,100642.32
2022-07-31T19:38:33.054Z,100644.27
2022-07-31T19:41:03.529Z,100640.42
2022-07-31T19:43:33.547Z,100642.86
2022-07-31T19:46:11.662Z,100644.02
2022-07-31T19:48:42.149Z,100644.30
2022-07-31T19:51:11.754Z,100648.13
2022-07-31T19:53:42.162Z,100646.93
2022-07-31T19:56:13.820Z,100649.71
2022-07-31T19:58:45.396Z,100647.55
2022-07-31T20:01:14.679Z,100644.77
2022-07-31T20:03:44.043Z,100643.81
2022-07-31T20:06:13.339Z,100644.97
2022-07-31T20:08:43.748Z,100648.75
2022-07-31T20:11:13.932Z,100648.73
2022-07-31T20:13:43.332Z,100653.04
2022-07-31T20:16:14.026Z,100654.73
2022-07-31T20:18:43.256Z,100657.60
2022-07-31T20:21:12.609Z,100656.45
2022-07-31T20:23:41.915Z,100651.05
2022-07-31T20:26:11.231Z,100651.77
2022-07-31T20:28:40.576Z,100655.83
2022-07-31T20:31:16.150Z,100649.83
2022-07-31T20:33:56.694Z,100648.30
2022-07-31T20:36:30.345Z,100647.59
2022-07-31T20:38:59.747Z,100645.02
2022-07-31T20:41:29.449Z,100640.13
2022-07-31T20:43:58.785Z,100641.12
2022-07-31T20:46:29.259Z,100638.39
2022-07-31T20:48:59.600Z,100639.64
2022-07-31T20:51:29.835Z,100636.96
2022-07-31T20:53:59.222Z,100636.85
2022-07-31T20:56:28.634Z,100637.55
2022-07-31T20:58:58.033Z,100636.80
2022-07-31T21:01:27.473Z,100633.80
2022-07-31T21:03:57.196Z,100634.50
2022-07-31T21:06:26.495Z,100634.25
2022-07-31T21:08:55.862Z,100639.16
2022-07-31T21:11:31.403Z,100637.95
2022-07-31T21:14:01.489Z,100636.46
2022-07-31T21:16:30.741Z,100634.20
2022-07-31T21:19:00.049Z,100636.30
2022-07-31T21:21:29.355Z,100632.80
2022-07-31T21:24:01.154Z,100638.04
2022-07-31T21:26:30.460Z,100631.22
2022-07-31T21:28:59.906Z,100628.44
2022-07-31T21:31:29.244Z,100625.09
2022-07-31T21:33:58.602Z,100619.77
2022-07-31T21:36:28.115Z,100620.09
2022-07-31T21:38:57.367Z,100621.13
2022-07-31T21:41:26.732Z,100626.89
2022-07-31T21:43:59.588Z,100628.23
2022-07-31T21:46:29.575Z,100629.66
2022-07-31T21:48:58.801Z,100631.59
2022-07-31T21:51:28.115Z,100634.90
2022-07-31T21:53:57.521Z,100635.92
2022-07-31T21:56:28.212Z,100638.39
2022-07-31T21:58:57.435Z,100640.29
2022-07-31T22:01:26.861Z,100644.95
2022-07-31T22:03:56.153Z,100641.27
2022-07-31T22:06:43.117Z,100638.89
2022-07-31T22:09:12.472Z,100637.09
2022-07-31T22:11:41.713Z,100636.88
2022-07-31T22:14:24.562Z,100637.81
2022-07-31T22:16:53.922Z,100633.35
2022-07-31T22:19:23.192Z,100636.13
2022-07-31T22:21:52.485Z,100633.59
2022-07-31T22:24:21.718Z,100629.83
2022-07-31T22:27:08.664Z,100630.52
2022-07-31T22:29:39.840Z,100630.05
2022-07-31T22:32:09.589Z,100626.66
2022-07-31T22:34:38.851Z,100626.99
2022-07-31T22:37:08.073Z,100629.22
2022-07-31T22:39:38.779Z,100625.16
2022-07-31T22:42:08.122Z,100621.60
2022-07-31T22:44:39.184Z,100619.59
2022-07-31T22:47:08.423Z,100622.81
2022-07-31T22:49:37.867Z,100625.23
2022-07-31T22:52:07.836Z,100619.88
2022-07-31T22:54:37.640Z,100618.36
2022-07-31T22:57:06.947Z,100621.27
2022-07-31T22:59:36.181Z,100614.70
2022-07-31T23:02:05.758Z,100615.15
2022-07-31T23:04:35.594Z,100614.05
2022-07-31T23:07:04.878Z,100616.20
2022-07-31T23:09:34.069Z,100616.42
2022-07-31T23:12:03.534Z,100613.44
2022-07-31T23:14:33.599Z,100615.06
2022-07-31T23:17:03.678Z,100615.52
2022-07-31T23:19:32.983Z,100613.79
2022-07-31T23:22:02.564Z,100609.92
2022-07-31T23:24:32.310Z,100614.39
2022-07-31T23:27:01.534Z,100612.75
2022-07-31T23:29:30.784Z,100612.14
2022-07-31T23:32:00.038Z,100618.49
2022-07-31T23:34:29.411Z,100617.56
2022-07-31T23:36:59.203Z,100617.44
2022-07-31T23:39:28.627Z,100617.11
2022-07-31T23:42:15.494Z,100619.61
2022-07-31T23:44:46.126Z,100619.58
2022-07-31T23:47:16.206Z,100623.28
2022-07-31T23:49:45.607Z,100618.92
2022-07-31T23:52:14.852Z,100617.36
2022-07-31T23:54:44.199Z,100619.13
2022-07-31T23:57:13.486Z,100614.31
2022-07-31T23:59:42.888Z,100610.34
